sensor_id;sensor_type;location;lat;lon;timestamp;P1;P2;P0
49343;PMS5003;35210;41.606;-87.602;2022-09-09T00:01:31;4.20;4.00;3.80
49343;PMS5003;35210;41.606;-87.602;2022-09-09T00:04:11;9.60;6.00;4.80
49343;PMS5003;35210;41.606;-87.602;2022-09-09T00:06:49;5.00;5.00;3.40
49343;PMS5003;35210;41.606;-87.602;2022-09-09T00:09:23;6.20;5.80;3.60
49343;PMS5003;35210;41.606;-87.602;2022-09-09T00:11:57;6.00;5.80;4.00
49343;PMS5003;35210;41.606;-87.602;2022-09-09T00:14:34;6.20;6.20;5.00
49343;PMS5003;35210;41.606;-87.602;2022-09-09T00:17:11;5.80;5.80;4.00
49343;PMS5003;35210;41.606;-87.602;2022-09-09T00:19:44;7.80;6.00;4.00
49343;PMS5003;35210;41.606;-87.602;2022-09-09T00:22:20;7.20;6.00;4.40
49343;PMS5003;35210;41.606;-87.602;2022-09-09T00:24:51;8.00;8.00;5.00
49343;PMS5003;35210;41.606;-87.602;2022-09-09T00:27:23;4.80;4.80;3.60
49343;PMS5003;35210;41.606;-87.602;2022-09-09T00:29:58;8.00;7.00;5.60
49343;PMS5003;35210;41.606;-87.602;2022-09-09T00:32:31;6.40;6.00;5.00
49343;PMS5003;35210;41.606;-87.602;2022-09-09T00:35:03;6.00;6.00;3.00
49343;PMS5003;35210;41.606;-87.602;2022-09-09T00:37:44;6.60;6.60;5.60
49343;PMS5003;35210;41.606;-87.602;2022-09-09T00:40:22;6.00;6.00;5.00
49343;PMS5003;35210;41.606;-87.602;2022-09-09T00:42:57;5.20;5.20;3.40
49343;PMS5003;35210;41.606;-87.602;2022-09-09T00:49:07;7.00;7.00;4.80
49343;PMS5003;35210;41.606;-87.602;2022-09-09T00:51:45;9.40;7.20;5.20
49343;PMS5003;35210;41.606;-87.602;2022-09-09T00:54:27;7.00;7.00;4.00
49343;PMS5003;35210;41.606;-87.602;2022-09-09T00:57:10;5.40;5.40;3.80
49343;PMS5003;35210;41.606;-87.602;2022-09-09T00:59:49;7.00;7.00;4.80
49343;PMS5003;35210;41.606;-87.602;2022-09-09T01:02:24;6.00;6.00;4.00
49343;PMS5003;35210;41.606;-87.602;2022-09-09T01:05:05;6.80;6.80;4.20
49343;PMS5003;35210;41.606;-87.602;2022-09-09T01:07:39;8.20;7.40;6.00
49343;PMS5003;35210;41.606;-87.602;2022-09-09T01:10:15;7.00;7.00;5.00
49343;PMS5003;35210;41.606;-87.602;2022-09-09T01:13:05;7.00;7.00;5.00
49343;PMS5003;35210;41.606;-87.602;2022-09-09T01:15:40;8.40;8.40;5.40
49343;PMS5003;35210;41.606;-87.602;2022-09-09T01:18:13;8.00;8.00;5.20
49343;PMS5003;35210;41.606;-87.602;2022-09-09T01:20:49;8.60;8.00;6.00
49343;PMS5003;35210;41.606;-87.602;2022-09-09T01:23:30;9.60;8.20;6.00
49343;PMS5003;35210;41.606;-87.602;2022-09-09T01:28:57;7.40;7.00;5.80
49343;PMS5003;35210;41.606;-87.602;2022-09-09T01:31:27;7.20;7.20;5.00
49343;PMS5003;35210;41.606;-87.602;2022-09-09T01:33:58;9.40;7.40;5.20
49343;PMS5003;35210;41.606;-87.602;2022-09-09T01:36:28;8.00;7.60;5.40
49343;PMS5003;35210;41.606;-87.602;2022-09-09T01:39:00;9.00;9.00;5.80
49343;PMS5003;35210;41.606;-87.602;2022-09-09T01:41:30;8.20;8.20;6.00
49343;PMS5003;35210;41.606;-87.602;2022-09-09T01:43:58;6.20;5.80;4.20
49343;PMS5003;35210;41.606;-87.602;2022-09-09T01:46:27;6.00;6.00;3.80
49343;PMS5003;35210;41.606;-87.602;2022-09-09T01:48:56;8.00;6.00;4.40
49343;PMS5003;35210;41.606;-87.602;2022-09-09T01:51:26;5.60;5.60;4.00
49343;PMS5003;35210;41.606;-87.602;2022-09-09T01:53:54;6.00;6.00;5.00
49343;PMS5003;35210;41.606;-87.602;2022-09-09T01:56:25;6.00;6.00;5.00
49343;PMS5003;35210;41.606;-87.602;2022-09-09T01:59:07;7.00;7.00;5.00
49343;PMS5003;35210;41.606;-87.602;2022-09-09T02:01:52;6.00;6.00;4.00
49343;PMS5003;35210;41.606;-87.602;2022-09-09T02:04:36;7.60;7.60;5.80
49343;PMS5003;35210;41.606;-87.602;2022-09-09T02:07:10;9.00;8.60;5.00
49343;PMS5003;35210;41.606;-87.602;2022-09-09T02:09:57;6.60;6.60;5.00
49343;PMS5003;35210;41.606;-87.602;2022-09-09T02:12:30;4.40;4.40;3.40
49343;PMS5003;35210;41.606;-87.602;2022-09-09T02:15:00;8.60;8.40;5.00
49343;PMS5003;35210;41.606;-87.602;2022-09-09T02:17:35;9.20;9.20;6.00
49343;PMS5003;35210;41.606;-87.602;2022-09-09T02:20:07;7.00;5.40;4.00
49343;PMS5003;35210;41.606;-87.602;2022-09-09T02:22:40;10.80;9.00;6.60
49343;PMS5003;35210;41.606;-87.602;2022-09-09T02:25:12;7.60;7.60;5.00
49343;PMS5003;35210;41.606;-87.602;2022-09-09T02:27:46;7.40;7.40;5.00
49343;PMS5003;35210;41.606;-87.602;2022-09-09T02:30:17;10.40;8.20;6.00
49343;PMS5003;35210;41.606;-87.602;2022-09-09T02:32:47;5.20;5.20;3.60
49343;PMS5003;35210;41.606;-87.602;2022-09-09T02:35:22;7.80;7.80;4.80
49343;PMS5003;35210;41.606;-87.602;2022-09-09T02:37:52;6.80;6.60;4.60
49343;PMS5003;35210;41.606;-87.602;2022-09-09T02:40:24;9.00;7.60;5.00
49343;PMS5003;35210;41.606;-87.602;2022-09-09T02:42:54;7.20;7.20;5.00
49343;PMS5003;35210;41.606;-87.602;2022-09-09T02:45:22;4.20;3.40;2.00
49343;PMS5003;35210;41.606;-87.602;2022-09-09T02:47:55;5.80;5.80;3.20
49343;PMS5003;35210;41.606;-87.602;2022-09-09T02:50:35;7.00;6.60;4.00
49343;PMS5003;35210;41.606;-87.602;2022-09-09T02:53:13;7.60;6.00;4.00
49343;PMS5003;35210;41.606;-87.602;2022-09-09T02:55:46;8.20;7.40;5.40
49343;PMS5003;35210;41.606;-87.602;2022-09-09T02:58:18;10.20;10.00;6.20
49343;PMS5003;35210;41.606;-87.602;2022-09-09T03:00:47;5.80;5.80;3.60
49343;PMS5003;35210;41.606;-87.602;2022-09-09T03:03:18;7.80;7.00;5.00
49343;PMS5003;35210;41.606;-87.602;2022-09-09T03:05:47;9.20;7.00;4.40
49343;PMS5003;35210;41.606;-87.602;2022-09-09T03:08:16;7.40;6.40;5.00
49343;PMS5003;35210;41.606;-87.602;2022-09-09T03:10:44;5.60;5.00;4.00
49343;PMS5003;35210;41.606;-87.602;2022-09-09T03:13:12;6.00;6.00;4.40
49343;PMS5003;35210;41.606;-87.602;2022-09-09T03:15:42;9.40;7.00;4.00
49343;PMS5003;35210;41.606;-87.602;2022-09-09T03:18:10;8.60;6.80;5.00
49343;PMS5003;35210;41.606;-87.602;2022-09-09T03:20:39;8.00;8.00;5.00
49343;PMS5003;35210;41.606;-87.602;2022-09-09T03:23:07;5.20;5.00;3.00
49343;PMS5003;35210;41.606;-87.602;2022-09-09T03:25:35;6.60;6.60;5.00
49343;PMS5003;35210;41.606;-87.602;2022-09-09T03:28:04;7.80;5.80;5.00
49343;PMS5003;35210;41.606;-87.602;2022-09-09T03:30:33;7.00;6.00;4.00
49343;PMS5003;35210;41.606;-87.602;2022-09-09T03:33:03;6.60;6.20;4.80
49343;PMS5003;35210;41.606;-87.602;2022-09-09T03:35:31;8.20;7.80;5.60
49343;PMS5003;35210;41.606;-87.602;2022-09-09T03:38:01;7.40;7.00;4.40
49343;PMS5003;35210;41.606;-87.602;2022-09-09T03:40:32;9.40;8.00;5.00
49343;PMS5003;35210;41.606;-87.602;2022-09-09T03:43:01;8.20;6.60;5.60
49343;PMS5003;35210;41.606;-87.602;2022-09-09T03:45:29;5.80;5.80;4.00
49343;PMS5003;35210;41.606;-87.602;2022-09-09T03:47:58;6.80;6.80;5.00
49343;PMS5003;35210;41.606;-87.602;2022-09-09T03:50:28;8.60;8.40;5.60
49343;PMS5003;35210;41.606;-87.602;2022-09-09T03:52:57;7.40;7.40;5.20
49343;PMS5003;35210;41.606;-87.602;2022-09-09T03:55:25;5.80;5.20;4.00
49343;PMS5003;35210;41.606;-87.602;2022-09-09T03:57:53;8.40;7.60;5.40
49343;PMS5003;35210;41.606;-87.602;2022-09-09T04:00:22;5.60;4.60;3.00
49343;PMS5003;35210;41.606;-87.602;2022-09-09T04:02:52;7.20;7.00;4.60
49343;PMS5003;35210;41.606;-87.602;2022-09-09T04:05:23;6.60;6.00;4.80
49343;PMS5003;35210;41.606;-87.602;2022-09-09T04:07:52;7.60;6.60;4.40
49343;PMS5003;35210;41.606;-87.602;2022-09-09T04:10:21;8.00;8.00;5.00
49343;PMS5003;35210;41.606;-87.602;2022-09-09T04:12:50;8.00;6.60;4.60
49343;PMS5003;35210;41.606;-87.602;2022-09-09T04:15:19;8.20;8.00;5.80
49343;PMS5003;35210;41.606;-87.602;2022-09-09T04:17:47;9.20;8.00;6.00
49343;PMS5003;35210;41.606;-87.602;2022-09-09T04:20:16;9.20;8.60;6.00
49343;PMS5003;35210;41.606;-87.602;2022-09-09T04:22:44;8.60;6.00;5.00
49343;PMS5003;35210;41.606;-87.602;2022-09-09T04:25:15;7.00;7.00;5.00
49343;PMS5003;35210;41.606;-87.602;2022-09-09T04:27:44;7.20;6.20;5.00
49343;PMS5003;35210;41.606;-87.602;2022-09-09T04:30:13;7.00;7.00;5.00
49343;PMS5003;35210;41.606;-87.602;2022-09-09T04:32:41;10.60;8.20;4.80
49343;PMS5003;35210;41.606;-87.602;2022-09-09T04:35:09;9.00;7.20;6.00
49343;PMS5003;35210;41.606;-87.602;2022-09-09T04:37:37;6.80;6.80;4.20
49343;PMS5003;35210;41.606;-87.602;2022-09-09T04:40:07;7.00;7.00;5.60
49343;PMS5003;35210;41.606;-87.602;2022-09-09T04:42:38;8.20;7.60;5.20
49343;PMS5003;35210;41.606;-87.602;2022-09-09T04:45:09;13.00;10.20;7.20
49343;PMS5003;35210;41.606;-87.602;2022-09-09T04:47:38;8.60;7.60;6.00
49343;PMS5003;35210;41.606;-87.602;2022-09-09T04:50:08;7.60;7.60;6.00
49343;PMS5003;35210;41.606;-87.602;2022-09-09T04:52:38;7.40;7.40;5.00
49343;PMS5003;35210;41.606;-87.602;2022-09-09T04:55:08;8.00;8.00;5.20
49343;PMS5003;35210;41.606;-87.602;2022-09-09T04:57:38;7.00;7.00;5.00
49343;PMS5003;35210;41.606;-87.602;2022-09-09T05:00:06;8.80;8.60;6.60
49343;PMS5003;35210;41.606;-87.602;2022-09-09T05:02:37;9.20;8.40;6.00
49343;PMS5003;35210;41.606;-87.602;2022-09-09T05:05:06;9.40;9.40;5.80
49343;PMS5003;35210;41.606;-87.602;2022-09-09T05:07:36;8.40;8.40;5.40
49343;PMS5003;35210;41.606;-87.602;2022-09-09T05:10:04;9.80;9.20;5.20
49343;PMS5003;35210;41.606;-87.602;2022-09-09T05:12:33;8.00;8.00;6.00
49343;PMS5003;35210;41.606;-87.602;2022-09-09T05:15:05;7.60;7.60;5.80
49343;PMS5003;35210;41.606;-87.602;2022-09-09T05:17:35;9.40;8.20;5.80
49343;PMS5003;35210;41.606;-87.602;2022-09-09T05:20:04;9.00;9.00;5.40
49343;PMS5003;35210;41.606;-87.602;2022-09-09T05:22:32;8.80;7.80;6.00
49343;PMS5003;35210;41.606;-87.602;2022-09-09T05:25:01;8.40;7.40;5.00
49343;PMS5003;35210;41.606;-87.602;2022-09-09T05:27:30;10.60;9.80;7.00
49343;PMS5003;35210;41.606;-87.602;2022-09-09T05:29:58;6.20;6.20;5.00
49343;PMS5003;35210;41.606;-87.602;2022-09-09T05:32:27;8.00;7.80;5.00
49343;PMS5003;35210;41.606;-87.602;2022-09-09T05:34:59;7.40;6.00;5.00
49343;PMS5003;35210;41.606;-87.602;2022-09-09T05:37:28;9.40;7.80;5.40
49343;PMS5003;35210;41.606;-87.602;2022-09-09T05:39:58;8.40;8.40;5.00
49343;PMS5003;35210;41.606;-87.602;2022-09-09T05:42:40;8.00;8.00;5.60
49343;PMS5003;35210;41.606;-87.602;2022-09-09T05:45:08;7.60;7.60;5.00
49343;PMS5003;35210;41.606;-87.602;2022-09-09T05:47:40;7.20;6.20;5.00
49343;PMS5003;35210;41.606;-87.602;2022-09-09T05:50:08;7.20;6.80;5.00
49343;PMS5003;35210;41.606;-87.602;2022-09-09T05:52:36;8.20;6.60;4.60
49343;PMS5003;35210;41.606;-87.602;2022-09-09T05:55:04;9.00;7.60;5.60
49343;PMS5003;35210;41.606;-87.602;2022-09-09T05:57:33;6.60;6.00;4.00
49343;PMS5003;35210;41.606;-87.602;2022-09-09T06:00:02;8.40;7.40;5.00
49343;PMS5003;35210;41.606;-87.602;2022-09-09T06:02:30;7.60;7.60;5.80
49343;PMS5003;35210;41.606;-87.602;2022-09-09T06:05:01;8.20;8.20;6.00
49343;PMS5003;35210;41.606;-87.602;2022-09-09T06:07:29;8.60;8.00;5.00
49343;PMS5003;35210;41.606;-87.602;2022-09-09T06:09:58;6.80;6.80;4.20
49343;PMS5003;35210;41.606;-87.602;2022-09-09T06:12:26;8.40;7.80;4.40
49343;PMS5003;35210;41.606;-87.602;2022-09-09T06:14:55;6.20;5.40;3.40
49343;PMS5003;35210;41.606;-87.602;2022-09-09T06:17:23;7.40;7.40;4.60
49343;PMS5003;35210;41.606;-87.602;2022-09-09T06:19:51;10.20;8.60;6.00
49343;PMS5003;35210;41.606;-87.602;2022-09-09T06:22:23;9.00;8.20;6.00
49343;PMS5003;35210;41.606;-87.602;2022-09-09T06:24:51;7.40;7.40;5.80
49343;PMS5003;35210;41.606;-87.602;2022-09-09T06:27:20;8.40;7.00;5.00
49343;PMS5003;35210;41.606;-87.602;2022-09-09T06:29:48;9.00;7.80;5.20
49343;PMS5003;35210;41.606;-87.602;2022-09-09T06:32:17;6.00;6.00;5.00
49343;PMS5003;35210;41.606;-87.602;2022-09-09T06:34:46;9.60;9.60;5.80
49343;PMS5003;35210;41.606;-87.602;2022-09-09T06:37:16;7.20;7.00;4.00
49343;PMS5003;35210;41.606;-87.602;2022-09-09T06:39:46;8.60;8.20;6.00
49343;PMS5003;35210;41.606;-87.602;2022-09-09T06:42:14;11.60;8.80;5.60
49343;PMS5003;35210;41.606;-87.602;2022-09-09T06:44:43;7.40;7.40;5.00
49343;PMS5003;35210;41.606;-87.602;2022-09-09T06:47:11;6.40;6.40;4.20
49343;PMS5003;35210;41.606;-87.602;2022-09-09T06:49:39;8.40;8.40;4.80
49343;PMS5003;35210;41.606;-87.602;2022-09-09T06:52:09;9.80;8.40;5.20
49343;PMS5003;35210;41.606;-87.602;2022-09-09T06:54:37;8.40;6.20;4.00
49343;PMS5003;35210;41.606;-87.602;2022-09-09T06:57:07;8.20;8.20;5.00
49343;PMS5003;35210;41.606;-87.602;2022-09-09T06:59:35;9.40;8.40;5.60
49343;PMS5003;35210;41.606;-87.602;2022-09-09T07:02:04;10.00;9.00;6.00
49343;PMS5003;35210;41.606;-87.602;2022-09-09T07:04:32;7.40;5.80;4.20
49343;PMS5003;35210;41.606;-87.602;2022-09-09T07:07:02;8.40;7.40;5.40
49343;PMS5003;35210;41.606;-87.602;2022-09-09T07:09:30;9.40;7.60;5.40
49343;PMS5003;35210;41.606;-87.602;2022-09-09T07:11:59;7.20;7.00;5.00
49343;PMS5003;35210;41.606;-87.602;2022-09-09T07:14:29;9.00;7.00;4.40
49343;PMS5003;35210;41.606;-87.602;2022-09-09T07:16:58;8.20;8.20;5.60
49343;PMS5003;35210;41.606;-87.602;2022-09-09T07:19:26;7.20;7.20;5.40
49343;PMS5003;35210;41.606;-87.602;2022-09-09T07:21:54;8.80;8.80;6.00
49343;PMS5003;35210;41.606;-87.602;2022-09-09T07:24:23;9.40;8.80;6.00
49343;PMS5003;35210;41.606;-87.602;2022-09-09T07:26:55;6.40;6.00;4.00
49343;PMS5003;35210;41.606;-87.602;2022-09-09T07:29:23;6.00;6.00;4.00
49343;PMS5003;35210;41.606;-87.602;2022-09-09T07:31:54;8.00;8.00;6.00
49343;PMS5003;35210;41.606;-87.602;2022-09-09T07:34:22;5.40;4.80;4.00
49343;PMS5003;35210;41.606;-87.602;2022-09-09T07:36:50;8.00;6.40;5.00
49343;PMS5003;35210;41.606;-87.602;2022-09-09T07:39:18;3.00;3.00;2.80
49343;PMS5003;35210;41.606;-87.602;2022-09-09T07:41:47;7.60;7.60;5.00
49343;PMS5003;35210;41.606;-87.602;2022-09-09T07:44:17;9.00;9.00;6.20
49343;PMS5003;35210;41.606;-87.602;2022-09-09T07:46:46;9.20;7.20;5.20
49343;PMS5003;35210;41.606;-87.602;2022-09-09T07:49:16;10.00;8.60;6.00
49343;PMS5003;35210;41.606;-87.602;2022-09-09T07:51:45;9.20;6.60;5.00
49343;PMS5003;35210;41.606;-87.602;2022-09-09T07:54:15;9.40;7.20;4.00
49343;PMS5003;35210;41.606;-87.602;2022-09-09T07:56:45;8.00;7.00;4.80
49343;PMS5003;35210;41.606;-87.602;2022-09-09T07:59:14;9.20;9.20;5.60
49343;PMS5003;35210;41.606;-87.602;2022-09-09T08:01:44;8.00;8.00;5.00
49343;PMS5003;35210;41.606;-87.602;2022-09-09T08:04:14;10.00;9.00;5.80
49343;PMS5003;35210;41.606;-87.602;2022-09-09T08:06:46;6.20;6.20;4.00
49343;PMS5003;35210;41.606;-87.602;2022-09-09T08:09:16;9.20;7.00;4.20
49343;PMS5003;35210;41.606;-87.602;2022-09-09T08:11:44;8.80;8.60;5.80
49343;PMS5003;35210;41.606;-87.602;2022-09-09T08:14:12;9.00;8.60;6.00
49343;PMS5003;35210;41.606;-87.602;2022-09-09T08:16:42;9.80;8.40;6.00
49343;PMS5003;35210;41.606;-87.602;2022-09-09T08:19:12;9.60;7.20;5.20
49343;PMS5003;35210;41.606;-87.602;2022-09-09T08:21:43;8.00;7.60;4.00
49343;PMS5003;35210;41.606;-87.602;2022-09-09T08:24:12;7.80;7.80;5.20
49343;PMS5003;35210;41.606;-87.602;2022-09-09T08:26:41;9.80;9.00;6.20
49343;PMS5003;35210;41.606;-87.602;2022-09-09T08:29:10;8.80;8.80;5.40
49343;PMS5003;35210;41.606;-87.602;2022-09-09T08:31:40;10.00;9.00;5.00
49343;PMS5003;35210;41.606;-87.602;2022-09-09T08:34:09;7.20;6.80;5.00
49343;PMS5003;35210;41.606;-87.602;2022-09-09T08:36:38;12.40;10.80;7.40
49343;PMS5003;35210;41.606;-87.602;2022-09-09T08:39:09;10.00;9.00;6.00
49343;PMS5003;35210;41.606;-87.602;2022-09-09T08:44:55;8.40;7.80;5.80
49343;PMS5003;35210;41.606;-87.602;2022-09-09T08:47:43;8.60;8.00;6.00
49343;PMS5003;35210;41.606;-87.602;2022-09-09T08:50:21;9.00;9.00;5.60
49343;PMS5003;35210;41.606;-87.602;2022-09-09T08:52:55;9.80;9.00;7.00
49343;PMS5003;35210;41.606;-87.602;2022-09-09T08:55:34;9.60;9.20;7.00
49343;PMS5003;35210;41.606;-87.602;2022-09-09T08:58:09;12.00;9.60;7.00
49343;PMS5003;35210;41.606;-87.602;2022-09-09T09:00:54;9.80;9.80;6.40
49343;PMS5003;35210;41.606;-87.602;2022-09-09T09:03:40;10.40;8.80;7.00
49343;PMS5003;35210;41.606;-87.602;2022-09-09T09:06:21;9.60;9.60;6.80
49343;PMS5003;35210;41.606;-87.602;2022-09-09T09:09:01;7.40;7.40;5.80
49343;PMS5003;35210;41.606;-87.602;2022-09-09T09:11:36;12.40;9.00;7.40
49343;PMS5003;35210;41.606;-87.602;2022-09-09T09:14:08;11.20;11.00;7.00
49343;PMS5003;35210;41.606;-87.602;2022-09-09T09:16:47;11.00;11.00;7.80
49343;PMS5003;35210;41.606;-87.602;2022-09-09T09:19:20;11.00;11.00;7.20
49343;PMS5003;35210;41.606;-87.602;2022-09-09T09:21:52;10.00;10.00;7.00
49343;PMS5003;35210;41.606;-87.602;2022-09-09T09:24:30;11.80;9.40;8.00
49343;PMS5003;35210;41.606;-87.602;2022-09-09T09:27:11;14.80;10.00;7.40
49343;PMS5003;35210;41.606;-87.602;2022-09-09T09:29:42;11.00;11.00;7.00
49343;PMS5003;35210;41.606;-87.602;2022-09-09T09:32:16;11.00;11.00;8.00
49343;PMS5003;35210;41.606;-87.602;2022-09-09T09:34:48;11.00;10.00;8.00
49343;PMS5003;35210;41.606;-87.602;2022-09-09T09:37:22;12.20;10.00;7.00
49343;PMS5003;35210;41.606;-87.602;2022-09-09T09:39:54;10.80;10.20;6.00
49343;PMS5003;35210;41.606;-87.602;2022-09-09T09:42:24;11.00;10.00;7.20
49343;PMS5003;35210;41.606;-87.602;2022-09-09T09:44:53;11.60;8.40;6.00
49343;PMS5003;35210;41.606;-87.602;2022-09-09T09:47:27;10.40;8.80;6.00
49343;PMS5003;35210;41.606;-87.602;2022-09-09T09:49:56;9.80;9.80;7.00
49343;PMS5003;35210;41.606;-87.602;2022-09-09T09:52:26;9.80;9.80;6.60
49343;PMS5003;35210;41.606;-87.602;2022-09-09T09:54:56;12.60;9.80;6.00
49343;PMS5003;35210;41.606;-87.602;2022-09-09T09:57:28;9.40;8.60;6.00
49343;PMS5003;35210;41.606;-87.602;2022-09-09T10:00:02;10.00;9.20;6.20
49343;PMS5003;35210;41.606;-87.602;2022-09-09T10:02:37;11.00;10.00;7.20
49343;PMS5003;35210;41.606;-87.602;2022-09-09T10:05:12;9.40;9.40;6.00
49343;PMS5003;35210;41.606;-87.602;2022-09-09T10:07:43;10.40;10.00;8.20
49343;PMS5003;35210;41.606;-87.602;2022-09-09T10:10:15;10.40;10.40;7.00
49343;PMS5003;35210;41.606;-87.602;2022-09-09T10:12:55;12.20;12.20;9.80
49343;PMS5003;35210;41.606;-87.602;2022-09-09T10:15:34;12.40;11.20;8.00
49343;PMS5003;35210;41.606;-87.602;2022-09-09T10:18:18;11.40;11.00;7.20
49343;PMS5003;35210;41.606;-87.602;2022-09-09T10:21:01;11.40;10.80;6.60
49343;PMS5003;35210;41.606;-87.602;2022-09-09T10:23:49;11.00;9.80;7.80
49343;PMS5003;35210;41.606;-87.602;2022-09-09T10:26:34;11.60;10.00;7.00
49343;PMS5003;35210;41.606;-87.602;2022-09-09T10:29:18;9.80;9.20;5.40
49343;PMS5003;35210;41.606;-87.602;2022-09-09T10:32:14;11.40;11.40;8.00
49343;PMS5003;35210;41.606;-87.602;2022-09-09T10:34:56;11.40;11.40;8.80
49343;PMS5003;35210;41.606;-87.602;2022-09-09T10:37:34;13.80;12.60;8.00
49343;PMS5003;35210;41.606;-87.602;2022-09-09T10:40:17;13.40;11.80;9.20
49343;PMS5003;35210;41.606;-87.602;2022-09-09T10:43:03;14.20;13.60;9.00
49343;PMS5003;35210;41.606;-87.602;2022-09-09T10:45:44;14.80;14.40;9.20
49343;PMS5003;35210;41.606;-87.602;2022-09-09T10:48:27;16.00;14.40;9.40
49343;PMS5003;35210;41.606;-87.602;2022-09-09T10:51:11;12.80;12.40;10.00
49343;PMS5003;35210;41.606;-87.602;2022-09-09T10:53:53;11.40;10.40;8.20
49343;PMS5003;35210;41.606;-87.602;2022-09-09T10:56:49;12.80;11.40;8.20
49343;PMS5003;35210;41.606;-87.602;2022-09-09T10:59:23;12.20;11.00;8.00
49343;PMS5003;35210;41.606;-87.602;2022-09-09T11:01:58;7.20;7.20;6.40
49343;PMS5003;35210;41.606;-87.602;2022-09-09T11:04:34;12.40;12.40;9.40
49343;PMS5003;35210;41.606;-87.602;2022-09-09T11:07:10;14.80;14.20;8.80
49343;PMS5003;35210;41.606;-87.602;2022-09-09T11:09:42;15.20;14.60;10.20
49343;PMS5003;35210;41.606;-87.602;2022-09-09T11:12:21;19.00;17.40;12.60
49343;PMS5003;35210;41.606;-87.602;2022-09-09T11:14:53;10.60;9.00;8.00
49343;PMS5003;35210;41.606;-87.602;2022-09-09T11:17:31;12.40;11.40;6.80
49343;PMS5003;35210;41.606;-87.602;2022-09-09T11:20:27;13.80;13.80;10.00
49343;PMS5003;35210;41.606;-87.602;2022-09-09T11:22:58;14.80;13.40;10.80
49343;PMS5003;35210;41.606;-87.602;2022-09-09T11:25:34;13.20;12.60;8.20
49343;PMS5003;35210;41.606;-87.602;2022-09-09T11:28:14;13.40;12.20;9.00
49343;PMS5003;35210;41.606;-87.602;2022-09-09T11:30:57;15.00;14.00;11.00
49343;PMS5003;35210;41.606;-87.602;2022-09-09T11:33:49;15.80;14.00;10.00
49343;PMS5003;35210;41.606;-87.602;2022-09-09T11:36:50;17.80;16.40;11.20
49343;PMS5003;35210;41.606;-87.602;2022-09-09T11:42:42;8.80;8.80;5.80
49343;PMS5003;35210;41.606;-87.602;2022-09-09T11:45:15;8.40;8.40;6.00
49343;PMS5003;35210;41.606;-87.602;2022-09-09T11:47:53;9.00;8.00;5.80
49343;PMS5003;35210;41.606;-87.602;2022-09-09T11:50:36;9.40;9.40;6.60
49343;PMS5003;35210;41.606;-87.602;2022-09-09T11:53:16;14.00;14.00;9.20
49343;PMS5003;35210;41.606;-87.602;2022-09-09T11:58:56;14.20;11.40;9.00
49343;PMS5003;35210;41.606;-87.602;2022-09-09T12:01:35;13.40;13.20;9.00
49343;PMS5003;35210;41.606;-87.602;2022-09-09T12:07:25;15.60;15.60;11.80
49343;PMS5003;35210;41.606;-87.602;2022-09-09T12:10:00;13.00;13.00;10.60
49343;PMS5003;35210;41.606;-87.602;2022-09-09T12:12:34;22.00;17.40;12.20
49343;PMS5003;35210;41.606;-87.602;2022-09-09T12:15:17;19.80;18.20;13.60
49343;PMS5003;35210;41.606;-87.602;2022-09-09T12:17:49;15.60;15.00;10.00
49343;PMS5003;35210;41.606;-87.602;2022-09-09T12:20:19;17.20;16.60;12.20
49343;PMS5003;35210;41.606;-87.602;2022-09-09T12:22:57;17.40;17.40;14.00
49343;PMS5003;35210;41.606;-87.602;2022-09-09T12:25:41;15.80;15.40;10.20
49343;PMS5003;35210;41.606;-87.602;2022-09-09T12:28:41;18.20;17.40;12.80
49343;PMS5003;35210;41.606;-87.602;2022-09-09T12:31:19;17.40;15.00;12.20
49343;PMS5003;35210;41.606;-87.602;2022-09-09T12:33:52;14.00;12.80;6.80
49343;PMS5003;35210;41.606;-87.602;2022-09-09T12:36:21;15.00;15.00;12.20
49343;PMS5003;35210;41.606;-87.602;2022-09-09T12:38:55;18.40;17.80;13.40
49343;PMS5003;35210;41.606;-87.602;2022-09-09T12:41:27;20.00;18.60;13.20
49343;PMS5003;35210;41.606;-87.602;2022-09-09T12:44:03;18.60;17.20;14.00
49343;PMS5003;35210;41.606;-87.602;2022-09-09T12:46:34;21.80;18.20;12.80
49343;PMS5003;35210;41.606;-87.602;2022-09-09T12:49:18;16.80;16.80;13.40
49343;PMS5003;35210;41.606;-87.602;2022-09-09T12:51:56;16.00;14.80;10.60
49343;PMS5003;35210;41.606;-87.602;2022-09-09T12:54:28;17.80;17.20;13.00
49343;PMS5003;35210;41.606;-87.602;2022-09-09T12:56:56;17.60;16.60;11.80
49343;PMS5003;35210;41.606;-87.602;2022-09-09T12:59:26;18.00;17.80;14.00
49343;PMS5003;35210;41.606;-87.602;2022-09-09T13:02:11;14.00;14.00;9.80
49343;PMS5003;35210;41.606;-87.602;2022-09-09T13:04:46;17.80;17.20;11.20
49343;PMS5003;35210;41.606;-87.602;2022-09-09T13:07:16;13.00;12.80;9.60
49343;PMS5003;35210;41.606;-87.602;2022-09-09T13:09:46;17.40;16.40;11.60
49343;PMS5003;35210;41.606;-87.602;2022-09-09T13:12:17;17.80;16.20;11.80
49343;PMS5003;35210;41.606;-87.602;2022-09-09T13:14:48;17.40;17.40;11.00
49343;PMS5003;35210;41.606;-87.602;2022-09-09T13:17:20;14.00;14.00;8.20
49343;PMS5003;35210;41.606;-87.602;2022-09-09T13:19:50;16.60;16.20;12.60
49343;PMS5003;35210;41.606;-87.602;2022-09-09T13:22:21;15.60;15.40;10.60
49343;PMS5003;35210;41.606;-87.602;2022-09-09T13:25:03;15.60;14.00;10.20
49343;PMS5003;35210;41.606;-87.602;2022-09-09T13:27:36;19.60;16.20;10.40
49343;PMS5003;35210;41.606;-87.602;2022-09-09T13:33:01;14.60;13.40;10.60
49343;PMS5003;35210;41.606;-87.602;2022-09-09T13:35:32;12.00;12.00;9.60
49343;PMS5003;35210;41.606;-87.602;2022-09-09T13:38:08;13.60;12.60;10.00
49343;PMS5003;35210;41.606;-87.602;2022-09-09T13:40:38;16.80;14.60;11.60
49343;PMS5003;35210;41.606;-87.602;2022-09-09T13:43:10;14.80;12.20;8.00
49343;PMS5003;35210;41.606;-87.602;2022-09-09T13:45:52;15.20;15.20;11.00
49343;PMS5003;35210;41.606;-87.602;2022-09-09T13:48:21;13.60;13.60;10.00
49343;PMS5003;35210;41.606;-87.602;2022-09-09T13:50:54;15.40;14.20;9.40
49343;PMS5003;35210;41.606;-87.602;2022-09-09T13:53:24;12.00;12.00;8.00
49343;PMS5003;35210;41.606;-87.602;2022-09-09T13:55:54;12.00;12.00;9.20
49343;PMS5003;35210;41.606;-87.602;2022-09-09T13:58:23;13.60;12.60;9.60
49343;PMS5003;35210;41.606;-87.602;2022-09-09T14:00:52;14.00;14.00;9.00
49343;PMS5003;35210;41.606;-87.602;2022-09-09T14:03:20;11.60;10.60;7.60
49343;PMS5003;35210;41.606;-87.602;2022-09-09T14:05:48;11.20;11.20;9.00
49343;PMS5003;35210;41.606;-87.602;2022-09-09T14:08:20;12.40;11.80;8.60
49343;PMS5003;35210;41.606;-87.602;2022-09-09T14:10:51;13.20;11.40;8.20
49343;PMS5003;35210;41.606;-87.602;2022-09-09T14:13:25;12.20;12.00;7.00
49343;PMS5003;35210;41.606;-87.602;2022-09-09T14:15:53;10.00;10.00;8.00
49343;PMS5003;35210;41.606;-87.602;2022-09-09T14:18:21;10.80;10.80;8.60
49343;PMS5003;35210;41.606;-87.602;2022-09-09T14:20:50;12.20;11.00;7.00
49343;PMS5003;35210;41.606;-87.602;2022-09-09T14:23:18;9.60;8.20;7.00
49343;PMS5003;35210;41.606;-87.602;2022-09-09T14:25:47;14.40;10.80;8.20
49343;PMS5003;35210;41.606;-87.602;2022-09-09T14:28:15;9.60;9.20;7.00
49343;PMS5003;35210;41.606;-87.602;2022-09-09T14:30:48;12.00;11.20;8.00
49343;PMS5003;35210;41.606;-87.602;2022-09-09T14:33:16;11.80;10.20;9.00
49343;PMS5003;35210;41.606;-87.602;2022-09-09T14:35:44;13.00;12.00;8.80
49343;PMS5003;35210;41.606;-87.602;2022-09-09T14:38:12;10.80;10.00;6.80
49343;PMS5003;35210;41.606;-87.602;2022-09-09T14:40:44;10.20;9.00;6.80
49343;PMS5003;35210;41.606;-87.602;2022-09-09T14:43:13;11.60;9.40;6.00